createdAt,value
2023-02-14T00:00:30.588Z,42.28
2023-02-14T00:02:57.368Z,45.22
2023-02-14T00:05:24.149Z,48.72
2023-02-14T00:07:50.897Z,44.78
2023-02-14T00:10:18.029Z,45.08
2023-02-14T00:12:44.669Z,44.20
2023-02-14T00:15:23.734Z,40.63
2023-02-14T00:17:55.240Z,36.95
2023-02-14T00:20:23.138Z,47.03
2023-02-14T00:22:49.965Z,38.92
2023-02-14T00:25:17.045Z,57.38
2023-02-14T00:27:43.796Z,47.35
2023-02-14T00:30:12.648Z,52.05
2023-02-14T00:32:40.859Z,34.05
2023-02-14T00:35:08.466Z,46.05
2023-02-14T00:37:35.593Z,42.95
2023-02-14T00:40:02.359Z,42.30
2023-02-14T00:42:29.101Z,36.30
2023-02-14T00:44:55.737Z,56.83
2023-02-14T00:47:22.603Z,52.58
2023-02-14T00:49:49.269Z,50.78
2023-02-14T00:52:15.983Z,56.72
2023-02-14T00:54:42.592Z,39.20
2023-02-14T00:57:09.400Z,37.38
2023-02-14T00:59:36.092Z,41.30
2023-02-14T01:02:03.072Z,35.35
2023-02-14T01:04:29.724Z,58.50
2023-02-14T01:06:56.383Z,33.58
2023-02-14T01:09:23.020Z,41.85
2023-02-14T01:11:49.716Z,38.75
2023-02-14T01:14:16.371Z,38.38
2023-02-14T01:16:43.085Z,38.35
2023-02-14T01:19:09.852Z,36.35
2023-02-14T01:21:36.718Z,42.40
2023-02-14T01:24:06.259Z,41.58
2023-02-14T01:26:34.216Z,44.28
2023-02-14T01:29:01.099Z,33.45
2023-02-14T01:31:30.236Z,44.03
2023-02-14T01:33:57.756Z,41.10
2023-02-14T01:36:33.806Z,52.92
2023-02-14T01:39:04.108Z,46.10
2023-02-14T01:41:33.789Z,37.65
2023-02-14T01:44:28.707Z,58.17
2023-02-14T01:46:56.438Z,28.50
2023-02-14T01:49:35.603Z,31.92
2023-02-14T01:52:17.756Z,42.43
2023-02-14T01:54:57.844Z,45.38
2023-02-14T02:00:17.566Z,26.45
2023-02-14T02:02:44.664Z,26.30
2023-02-14T02:05:12.068Z,23.70
2023-02-14T02:07:39.832Z,29.17
2023-02-14T02:10:08.012Z,30.27
2023-02-14T02:12:35.704Z,29.42
2023-02-14T02:15:04.097Z,24.52
2023-02-14T02:18:06.992Z,23.33
2023-02-14T02:21:23.767Z,24.70
2023-02-14T02:24:05.456Z,22.45
2023-02-14T02:27:04.055Z,22.33
2023-02-14T02:30:04.526Z,21.25
2023-02-14T02:32:55.784Z,23.80
2023-02-14T02:35:50.619Z,23.98
2023-02-14T02:38:24.932Z,21.35
2023-02-14T02:41:24.702Z,21.15
2023-02-14T02:44:09.079Z,23.13
2023-02-14T02:46:51.425Z,23.88
2023-02-14T02:49:45.763Z,24.08
2023-02-14T02:53:08.581Z,23.88
2023-02-14T02:55:59.912Z,25.80
2023-02-14T02:58:35.131Z,27.63
2023-02-14T03:01:12.472Z,27.42
2023-02-14T03:03:59.600Z,26.23
2023-02-14T03:06:26.289Z,33.33
2023-02-14T03:08:52.927Z,36.83
2023-02-14T03:11:19.814Z,33.25
2023-02-14T03:14:17.210Z,33.65
2023-02-14T03:17:07.474Z,86.93
2023-02-14T03:20:05.848Z,122.63
2023-02-14T03:22:50.476Z,43.25
2023-02-14T03:25:41.571Z,77.97
2023-02-14T03:28:28.322Z,31.25
2023-02-14T03:31:06.967Z,38.13
2023-02-14T03:33:39.181Z,43.53
2023-02-14T03:36:35.769Z,40.25
2023-02-14T03:39:07.909Z,51.85
2023-02-14T03:41:41.836Z,42.15
2023-02-14T03:44:11.409Z,41.35
2023-02-14T03:46:51.240Z,46.42
2023-02-14T03:49:29.031Z,45.08
2023-02-14T03:51:58.488Z,53.58
2023-02-14T03:54:27.105Z,60.28
2023-02-14T03:57:04.425Z,61.30
2023-02-14T03:59:31.279Z,77.45
2023-02-14T04:02:07.934Z,58.72
2023-02-14T04:04:38.779Z,56.70
2023-02-14T04:07:24.476Z,38.08
2023-02-14T04:09:51.588Z,61.42
2023-02-14T04:12:29.334Z,61.38
2023-02-14T04:15:02.569Z,94.63
2023-02-14T04:17:47.915Z,86.05
2023-02-14T04:20:14.570Z,89.70
2023-02-14T04:22:41.194Z,106.53
2023-02-14T04:25:07.916Z,93.68
2023-02-14T04:27:34.693Z,114.43
2023-02-14T04:30:01.381Z,94.28
2023-02-14T04:32:28.065Z,39.10
2023-02-14T04:34:54.930Z,36.80
2023-02-14T04:37:21.677Z,36.70
2023-02-14T04:39:48.868Z,33.20
2023-02-14T04:42:16.060Z,30.83
2023-02-14T04:44:42.793Z,35.90
2023-02-14T04:47:09.544Z,31.58
2023-02-14T04:49:36.360Z,31.73
2023-02-14T04:52:04.222Z,33.25
2023-02-14T04:54:31.213Z,31.33
2023-02-14T04:56:57.994Z,32.00
2023-02-14T04:59:25.232Z,33.00
2023-02-14T05:01:52.795Z,31.90
2023-02-14T05:04:20.038Z,31.80
2023-02-14T05:06:46.831Z,29.52
2023-02-14T05:09:13.491Z,31.08
2023-02-14T05:11:40.159Z,28.88
2023-02-14T05:14:06.872Z,31.60
2023-02-14T05:16:33.576Z,29.90
2023-02-14T05:19:00.259Z,27.88
2023-02-14T05:21:28.526Z,30.05
2023-02-14T05:23:55.141Z,25.83
2023-02-14T05:26:21.787Z,29.38
2023-02-14T05:28:48.417Z,27.52
2023-02-14T05:31:15.250Z,24.23
2023-02-14T05:33:41.994Z,27.20
2023-02-14T05:36:08.821Z,28.25
2023-02-14T05:38:35.473Z,29.38
2023-02-14T05:41:02.745Z,30.95
2023-02-14T05:43:30.362Z,33.08
2023-02-14T05:45:57.943Z,39.08
2023-02-14T05:48:25.136Z,32.50
2023-02-14T05:50:51.888Z,38.45
2023-02-14T05:53:18.669Z,42.17
2023-02-14T05:55:45.366Z,43.03
2023-02-14T05:58:12.668Z,37.72
2023-02-14T06:00:41.219Z,36.47
2023-02-14T06:03:08.454Z,35.97
2023-02-14T06:05:35.307Z,36.65
2023-02-14T06:08:02.083Z,37.30
2023-02-14T06:10:29.074Z,38.80
2023-02-14T06:12:55.925Z,34.63
2023-02-14T06:15:23.189Z,38.25
2023-02-14T06:17:57.070Z,41.45
2023-02-14T06:20:25.010Z,40.90
2023-02-14T06:22:52.201Z,36.83
2023-02-14T06:25:19.182Z,30.65
2023-02-14T06:27:48.271Z,60.70
2023-02-14T06:32:43.284Z,33.95
2023-02-14T06:35:10.412Z,30.15
2023-02-14T06:37:38.854Z,29.45
2023-02-14T06:40:06.220Z,30.60
2023-02-14T06:42:32.922Z,26.35
2023-02-14T06:44:59.622Z,30.50
2023-02-14T06:47:26.305Z,31.70
2023-02-14T06:49:53.005Z,27.58
2023-02-14T06:52:20.036Z,37.10
2023-02-14T06:54:46.712Z,31.73
2023-02-14T06:57:13.541Z,45.78
2023-02-14T06:59:40.347Z,47.85
2023-02-14T07:02:07.189Z,63.38
2023-02-14T07:04:33.902Z,95.43
2023-02-14T07:07:01.441Z,65.03
2023-02-14T07:09:28.124Z,62.47
2023-02-14T07:11:54.783Z,54.90
2023-02-14T07:14:21.564Z,57.55
2023-02-14T07:16:48.209Z,54.78
2023-02-14T07:19:14.916Z,65.22
2023-02-14T07:21:41.632Z,56.47
2023-02-14T07:24:08.368Z,65.32
2023-02-14T07:26:35.150Z,73.30
2023-02-14T07:29:01.792Z,80.72
2023-02-14T07:31:28.533Z,76.43
2023-02-14T07:33:55.305Z,97.43
2023-02-14T07:36:21.982Z,67.25
2023-02-14T07:38:48.610Z,70.70
2023-02-14T07:41:15.901Z,123.60
2023-02-14T07:43:42.542Z,103.97
2023-02-14T07:46:09.228Z,83.60
2023-02-14T07:48:36.038Z,140.65
2023-02-14T07:51:03.400Z,74.75
2023-02-14T07:53:30.792Z,67.43
2023-02-14T07:55:57.571Z,71.07
2023-02-14T07:58:24.222Z,77.65
2023-02-14T08:00:51.243Z,81.82
2023-02-14T08:03:18.541Z,99.18
2023-02-14T08:05:56.920Z,85.25
2023-02-14T08:08:29.285Z,72.20
2023-02-14T08:10:56.183Z,138.32
2023-02-14T08:13:23.318Z,76.20
2023-02-14T08:16:05.094Z,102.82
2023-02-14T08:18:42.069Z,131.25
2023-02-14T08:21:10.920Z,63.80
2023-02-14T08:23:38.537Z,59.90
2023-02-14T08:26:05.414Z,70.53
2023-02-14T08:28:33.181Z,67.43
2023-02-14T08:31:00.571Z,105.30
2023-02-14T08:33:27.601Z,109.35
2023-02-14T08:35:54.552Z,84.72
2023-02-14T08:38:21.371Z,63.25
2023-02-14T08:40:48.392Z,74.72
2023-02-14T08:43:15.451Z,107.60
2023-02-14T08:45:45.079Z,69.10
2023-02-14T08:48:13.047Z,83.97
2023-02-14T08:50:40.459Z,66.75
2023-02-14T08:53:09.439Z,49.00
2023-02-14T08:55:36.374Z,71.40
2023-02-14T08:58:03.807Z,72.60
2023-02-14T09:00:31.442Z,57.28
2023-02-14T09:02:59.073Z,79.32
2023-02-14T09:05:26.522Z,69.85
2023-02-14T09:07:55.917Z,65.20
2023-02-14T09:10:22.846Z,53.90
2023-02-14T09:12:49.492Z,91.18
2023-02-14T09:15:16.196Z,58.50
2023-02-14T09:17:42.857Z,52.42
2023-02-14T09:20:11.544Z,44.55
2023-02-14T09:22:38.621Z,71.93
2023-02-14T09:25:06.204Z,59.40
2023-02-14T09:27:32.997Z,85.60
2023-02-14T09:29:59.717Z,98.53
2023-02-14T09:32:27.225Z,45.05
2023-02-14T09:34:53.990Z,44.80
2023-02-14T09:37:39.342Z,69.72
2023-02-14T09:40:06.546Z,53.17
2023-02-14T09:43:18.560Z,46.13
2023-02-14T09:45:52.964Z,47.53
2023-02-14T09:48:33.993Z,42.40
2023-02-14T09:51:05.629Z,45.40
2023-02-14T09:53:40.766Z,48.65
2023-02-14T09:56:42.722Z,48.42
2023-02-14T09:59:26.114Z,41.55
2023-02-14T10:02:21.602Z,65.95
2023-02-14T10:05:18.357Z,38.63
2023-02-14T10:08:08.952Z,47.38
2023-02-14T10:10:44.184Z,41.47
2023-02-14T10:13:31.711Z,38.70
2023-02-14T10:16:18.576Z,42.85
2023-02-14T10:19:17.337Z,43.38
2023-02-14T10:22:00.707Z,46.25
2023-02-14T10:24:35.519Z,50.17
2023-02-14T10:27:11.093Z,49.75
2023-02-14T10:29:38.114Z,44.40
2023-02-14T10:32:09.781Z,45.90
2023-02-14T10:34:47.956Z,46.10
2023-02-14T10:37:53.091Z,45.15
2023-02-14T10:40:28.632Z,47.33
2023-02-14T10:43:22.764Z,47.15
2023-02-14T10:45:52.426Z,46.05
2023-02-14T10:48:38.061Z,50.00
2023-02-14T10:51:22.173Z,48.03
2023-02-14T10:54:00.540Z,57.00
2023-02-14T10:56:37.326Z,68.30
2023-02-14T10:59:19.791Z,65.75
2023-02-14T11:01:47.581Z,57.83
2023-02-14T11:04:16.926Z,49.17
2023-02-14T11:06:43.657Z,46.25
2023-02-14T11:09:12.176Z,45.83
2023-02-14T11:11:44.320Z,53.03
2023-02-14T11:14:28.263Z,47.20
2023-02-14T11:16:56.527Z,40.55
2023-02-14T11:19:30.151Z,46.63
2023-02-14T11:21:59.421Z,41.28
2023-02-14T11:24:39.313Z,43.23
2023-02-14T11:27:11.925Z,43.85
2023-02-14T11:29:41.638Z,45.42
2023-02-14T11:32:13.661Z,40.50
2023-02-14T11:34:54.397Z,43.50
2023-02-14T11:37:25.108Z,39.75
2023-02-14T11:39:54.986Z,40.15
2023-02-14T11:42:37.130Z,46.30
2023-02-14T11:45:05.353Z,53.28
2023-02-14T11:47:34.447Z,39.67
2023-02-14T11:50:10.568Z,51.00
2023-02-14T11:52:52.576Z,45.55
2023-02-14T11:55:26.873Z,46.28
2023-02-14T11:57:54.962Z,39.75
2023-02-14T12:00:23.392Z,44.83
2023-02-14T12:02:51.494Z,46.72
2023-02-14T12:05:27.027Z,46.53
2023-02-14T12:07:57.263Z,45.67
2023-02-14T12:12:55.380Z,51.33
2023-02-14T12:15:40.397Z,47.80
2023-02-14T12:18:23.119Z,50.75
2023-02-14T12:21:03.245Z,45.72
2023-02-14T12:26:11.930Z,48.40
2023-02-14T12:28:49.926Z,44.60
2023-02-14T12:31:17.411Z,44.95
2023-02-14T12:33:46.363Z,50.50
2023-02-14T12:36:49.384Z,51.35
2023-02-14T12:39:16.036Z,50.70
2023-02-14T12:42:17.477Z,40.67
2023-02-14T12:44:57.882Z,46.33
2023-02-14T12:47:57.613Z,43.63
2023-02-14T12:50:42.922Z,41.78
2023-02-14T12:53:35.334Z,42.90
2023-02-14T12:56:32.589Z,43.15
2023-02-14T12:59:09.837Z,41.13
2023-02-14T13:02:05.194Z,41.53
2023-02-14T13:04:53.821Z,42.05
2023-02-14T13:07:39.117Z,40.50
2023-02-14T13:10:14.592Z,42.85
2023-02-14T13:12:50.771Z,43.75
2023-02-14T13:15:45.374Z,41.30
2023-02-14T13:18:32.576Z,41.50
2023-02-14T13:21:03.183Z,44.78
2023-02-14T13:23:37.287Z,44.10
2023-02-14T13:26:05.847Z,45.05
2023-02-14T13:28:33.288Z,48.75
2023-02-14T13:31:01.940Z,47.85
2023-02-14T13:33:35.243Z,47.55
2023-02-14T13:36:07.867Z,43.65
2023-02-14T13:38:44.083Z,45.80
2023-02-14T13:41:11.691Z,47.53
2023-02-14T13:44:33.651Z,52.25
2023-02-14T13:47:00.328Z,50.55
2023-02-14T13:49:33.315Z,48.70
2023-02-14T13:52:06.222Z,46.00
2023-02-14T13:54:48.726Z,51.15
2023-02-14T13:57:33.964Z,48.50
2023-02-14T14:00:21.607Z,49.05
2023-02-14T14:02:57.703Z,48.47
2023-02-14T14:05:30.870Z,51.90
2023-02-14T14:08:16.393Z,52.85
2023-02-14T14:11:11.156Z,53.45
2023-02-14T14:13:40.833Z,54.78
2023-02-14T14:16:24.149Z,57.10
2023-02-14T14:19:10.713Z,59.65
2023-02-14T14:21:44.068Z,59.95
2023-02-14T14:24:25.992Z,58.90
2023-02-14T14:27:19.491Z,61.60
2023-02-14T14:29:53.325Z,61.28
2023-02-14T14:32:36.298Z,61.50
2023-02-14T14:35:05.199Z,61.80
2023-02-14T14:37:34.968Z,59.72
2023-02-14T14:40:05.246Z,58.30
2023-02-14T14:45:22.752Z,61.28
2023-02-14T14:48:03.161Z,61.90
2023-02-14T14:50:33.568Z,63.47
2023-02-14T14:53:05.347Z,61.90
2023-02-14T14:55:36.001Z,63.47
2023-02-14T14:58:05.498Z,62.75
2023-02-14T15:00:34.977Z,61.53
2023-02-14T15:03:17.277Z,62.25
2023-02-14T15:05:43.885Z,61.55
2023-02-14T15:08:30.944Z,61.42
2023-02-14T15:11:03.682Z,66.43
2023-02-14T15:13:53.416Z,63.25
2023-02-14T15:16:34.994Z,63.47
2023-02-14T15:19:10.304Z,59.70
2023-02-14T15:21:40.253Z,61.45
2023-02-14T15:24:13.843Z,66.75
2023-02-14T15:26:44.121Z,63.42
2023-02-14T15:31:57.319Z,58.65
2023-02-14T15:34:29.329Z,62.50
2023-02-14T15:37:03.491Z,58.30
2023-02-14T15:39:36.724Z,60.75
2023-02-14T15:42:05.954Z,62.20
2023-02-14T15:44:32.953Z,58.67
2023-02-14T15:47:03.796Z,62.42
2023-02-14T15:49:35.526Z,61.72
2023-02-14T15:52:04.917Z,62.42
2023-02-14T15:54:38.972Z,61.00
2023-02-14T15:57:16.463Z,64.25
2023-02-14T15:59:43.630Z,65.05
2023-02-14T16:02:17.138Z,64.30
2023-02-14T16:04:44.269Z,65.35
2023-02-14T16:07:22.867Z,65.70
2023-02-14T16:09:51.472Z,74.22
2023-02-14T16:12:36.271Z,66.32
2023-02-14T16:15:15.239Z,71.88
2023-02-14T16:17:44.043Z,78.65
2023-02-14T16:20:37.787Z,88.43
2023-02-14T16:23:20.294Z,173.70
2023-02-14T16:25:47.821Z,120.40
2023-02-14T16:28:14.730Z,175.52
2023-02-14T16:30:42.709Z,199.52
2023-02-14T16:33:30.114Z,284.63
2023-02-14T16:36:23.337Z,418.73
2023-02-14T16:38:50.766Z,339.50
2023-02-14T16:41:28.577Z,503.35
2023-02-14T16:43:56.348Z,391.42
2023-02-14T16:46:32.129Z,456.33
2023-02-14T16:48:59.900Z,371.83
2023-02-14T16:51:29.476Z,276.42
2023-02-14T16:53:59.315Z,257.35
2023-02-14T16:56:38.343Z,442.77
2023-02-14T16:59:05.192Z,280.27
2023-02-14T17:01:32.680Z,408.08
2023-02-14T17:04:00.170Z,298.85
2023-02-14T17:06:28.606Z,309.60
2023-02-14T17:08:57.394Z,379.70
2023-02-14T17:11:25.694Z,284.50
2023-02-14T17:13:54.595Z,294.45
2023-02-14T17:16:22.179Z,260.73
2023-02-14T17:18:51.790Z,356.48
2023-02-14T17:21:21.810Z,421.42
2023-02-14T17:23:48.543Z,314.08
2023-02-14T17:26:17.828Z,257.52
2023-02-14T17:28:46.380Z,285.02
2023-02-14T17:31:13.775Z,327.02
2023-02-14T17:33:40.818Z,292.25
2023-02-14T17:36:11.774Z,198.52
2023-02-14T17:38:39.245Z,268.52
2023-02-14T17:41:18.634Z,346.35
2023-02-14T17:43:46.143Z,431.87
2023-02-14T17:46:16.283Z,252.07
2023-02-14T17:51:13.051Z,273.92
2023-02-14T17:53:41.566Z,211.35
2023-02-14T17:56:24.273Z,347.20
2023-02-14T17:58:52.935Z,171.13
2023-02-14T18:01:26.736Z,194.02
2023-02-14T18:03:54.791Z,411.30
2023-02-14T18:06:22.058Z,151.48
2023-02-14T18:08:50.533Z,280.52
2023-02-14T18:11:19.240Z,128.25
2023-02-14T18:13:46.530Z,224.07
2023-02-14T18:16:16.200Z,318.20
2023-02-14T18:18:43.154Z,276.83
2023-02-14T18:21:13.079Z,158.60
2023-02-14T18:23:39.800Z,163.82
2023-02-14T18:26:11.899Z,159.05
2023-02-14T18:28:38.961Z,152.18
2023-02-14T18:31:17.106Z,256.27
2023-02-14T18:33:44.813Z,129.30
2023-02-14T18:36:14.678Z,271.23
2023-02-14T18:38:43.636Z,245.13
2023-02-14T18:41:13.824Z,142.27
2023-02-14T18:46:18.440Z,283.10
2023-02-14T18:48:45.268Z,431.52
2023-02-14T18:51:16.843Z,344.67
2023-02-14T18:53:44.914Z,306.23
2023-02-14T18:56:17.066Z,177.20
2023-02-14T18:58:50.617Z,156.52
2023-02-14T19:01:19.920Z,363.20
2023-02-14T19:03:47.101Z,486.87
2023-02-14T19:06:13.765Z,359.63
2023-02-14T19:08:40.918Z,101.47
2023-02-14T19:11:19.335Z,110.32
2023-02-14T19:13:51.177Z,157.68
2023-02-14T19:16:20.727Z,111.40
2023-02-14T19:18:49.677Z,106.13
2023-02-14T19:21:21.865Z,199.85
2023-02-14T19:23:49.583Z,214.80
2023-02-14T19:26:19.147Z,252.95
2023-02-14T19:28:47.442Z,158.98
2023-02-14T19:31:15.454Z,240.38
2023-02-14T19:33:44.450Z,264.10
2023-02-14T19:36:13.540Z,643.42
2023-02-14T19:38:41.887Z,163.70
2023-02-14T19:41:34.705Z,192.55
2023-02-14T19:44:04.529Z,350.02
2023-02-14T19:46:31.632Z,254.68
2023-02-14T19:48:58.919Z,103.50
2023-02-14T19:51:31.164Z,79.55
2023-02-14T19:54:00.155Z,152.80
2023-02-14T19:56:29.653Z,145.77
2023-02-14T19:58:57.178Z,347.95
2023-02-14T20:01:41.456Z,248.35
2023-02-14T20:04:11.184Z,277.38
2023-02-14T20:06:38.486Z,281.63
2023-02-14T20:09:06.221Z,158.27
2023-02-14T20:11:38.991Z,211.50
2023-02-14T20:14:06.586Z,215.15
2023-02-14T20:16:35.004Z,99.35
2023-02-14T20:19:02.901Z,117.55
2023-02-14T20:21:29.744Z,111.80
2023-02-14T20:24:03.579Z,149.88
2023-02-14T20:26:32.746Z,95.43
2023-02-14T20:29:01.033Z,106.17
2023-02-14T20:31:27.814Z,81.90
2023-02-14T20:33:55.907Z,96.80
2023-02-14T20:36:23.691Z,165.00
2023-02-14T20:39:01.600Z,72.82
2023-02-14T20:41:29.356Z,98.00
2023-02-14T20:44:03.337Z,146.05
2023-02-14T20:46:31.048Z,88.90
2023-02-14T20:48:57.745Z,102.30
2023-02-14T20:51:24.532Z,69.05
2023-02-14T20:53:51.312Z,61.55
2023-02-14T20:56:18.370Z,102.80
2023-02-14T20:58:45.510Z,78.18
2023-02-14T21:01:14.656Z,279.75
2023-02-14T21:03:43.114Z,136.52
2023-02-14T21:06:14.072Z,73.43
2023-02-14T21:08:42.455Z,119.47
2023-02-14T21:11:10.993Z,378.45
2023-02-14T21:13:37.721Z,90.93
2023-02-14T21:16:06.310Z,256.73
2023-02-14T21:18:34.049Z,76.10
2023-02-14T21:21:36.065Z,144.77
2023-02-14T21:24:07.028Z,82.43
2023-02-14T21:26:34.228Z,78.55
2023-02-14T21:29:01.548Z,71.68
2023-02-14T21:31:28.472Z,68.28
2023-02-14T21:33:58.396Z,63.03
2023-02-14T21:36:27.685Z,75.70
2023-02-14T21:38:58.305Z,78.25
2023-02-14T21:41:28.725Z,79.03
2023-02-14T21:43:56.448Z,60.50
2023-02-14T21:46:27.384Z,46.58
2023-02-14T21:49:14.266Z,61.58
2023-02-14T21:51:41.709Z,66.53
2023-02-14T21:54:09.369Z,51.78
2023-02-14T21:56:37.103Z,71.85
2023-02-14T21:59:04.484Z,100.32
2023-02-14T22:01:34.967Z,157.00
2023-02-14T22:04:02.823Z,125.68
2023-02-14T22:06:29.555Z,96.00
2023-02-14T22:09:00.608Z,55.45
2023-02-14T22:11:28.511Z,91.95
2023-02-14T22:13:56.271Z,68.38
2023-02-14T22:16:24.649Z,94.35
2023-02-14T22:18:52.157Z,89.63
2023-02-14T22:21:23.962Z,73.82
2023-02-14T22:23:50.875Z,85.03
2023-02-14T22:26:26.367Z,82.38
2023-02-14T22:28:56.921Z,131.23
2023-02-14T22:31:25.207Z,74.88
2023-02-14T22:33:51.929Z,97.97
2023-02-14T22:36:18.615Z,87.75
2023-02-14T22:38:45.286Z,82.80
2023-02-14T22:41:20.937Z,84.63
2023-02-14T22:43:48.199Z,65.00
2023-02-14T22:46:20.632Z,85.38
2023-02-14T22:48:49.337Z,105.47
2023-02-14T22:51:24.852Z,73.93
2023-02-14T22:53:55.040Z,67.10
2023-02-14T22:58:57.621Z,86.20
2023-02-14T23:01:24.933Z,134.00
2023-02-14T23:03:56.949Z,100.85
2023-02-14T23:06:25.392Z,132.82
2023-02-14T23:08:53.402Z,80.35
2023-02-14T23:11:25.894Z,48.30
2023-02-14T23:14:12.008Z,48.58
2023-02-14T23:16:57.662Z,61.90
2023-02-14T23:19:45.710Z,54.15
2023-02-14T23:22:15.759Z,62.40
2023-02-14T23:24:42.936Z,59.38
2023-02-14T23:27:09.813Z,56.22
2023-02-14T23:29:37.590Z,57.78
2023-02-14T23:32:06.467Z,56.05
2023-02-14T23:34:35.232Z,51.90
2023-02-14T23:37:02.214Z,86.70
2023-02-14T23:39:31.791Z,49.20
2023-02-14T23:41:58.525Z,76.03
2023-02-14T23:44:27.370Z,44.08
2023-02-14T23:46:56.605Z,50.95
2023-02-14T23:49:24.168Z,61.20
2023-02-14T23:51:52.683Z,46.72
2023-02-14T23:54:20.513Z,48.05
2023-02-14T23:56:47.821Z,81.53
2023-02-14T23:59:15.782Z,47.53
